sensor_id;sensor_type;location;lat;lon;timestamp;temperature;humidity
6102;DHT22;3081;50.584;7.032;2023-11-22T00:00:22;7.00;99.90
6102;DHT22;3081;50.584;7.032;2023-11-22T00:02:51;7.00;99.90
6102;DHT22;3081;50.584;7.032;2023-11-22T00:05:17;7.00;99.90
6102;DHT22;3081;50.584;7.032;2023-11-22T00:07:44;6.90;99.90
6102;DHT22;3081;50.584;7.032;2023-11-22T00:10:11;6.90;99.90
6102;DHT22;3081;50.584;7.032;2023-11-22T00:12:39;6.90;99.90
6102;DHT22;3081;50.584;7.032;2023-11-22T00:15:07;6.90;99.90
6102;DHT22;3081;50.584;7.032;2023-11-22T00:17:36;6.80;99.90
6102;DHT22;3081;50.584;7.032;2023-11-22T00:20:06;6.90;99.90
6102;DHT22;3081;50.584;7.032;2023-11-22T00:22:33;6.90;99.90
6102;DHT22;3081;50.584;7.032;2023-11-22T00:25:00;6.80;99.90
6102;DHT22;3081;50.584;7.032;2023-11-22T00:27:27;6.90;99.90
6102;DHT22;3081;50.584;7.032;2023-11-22T00:29:55;6.80;99.90
6102;DHT22;3081;50.584;7.032;2023-11-22T00:32:22;6.80;99.90
6102;DHT22;3081;50.584;7.032;2023-11-22T00:34:51;6.80;99.90
6102;DHT22;3081;50.584;7.032;2023-11-22T00:37:19;6.80;99.90
6102;DHT22;3081;50.584;7.032;2023-11-22T00:39:46;6.80;99.90
6102;DHT22;3081;50.584;7.032;2023-11-22T00:42:13;6.80;99.90
6102;DHT22;3081;50.584;7.032;2023-11-22T00:44:40;6.80;99.90
6102;DHT22;3081;50.584;7.032;2023-11-22T00:47:07;6.80;99.90
6102;DHT22;3081;50.584;7.032;2023-11-22T00:49:34;6.80;99.90
6102;DHT22;3081;50.584;7.032;2023-11-22T00:52:01;6.70;99.90
6102;DHT22;3081;50.584;7.032;2023-11-22T00:54:29;6.70;99.90
6102;DHT22;3081;50.584;7.032;2023-11-22T00:56:56;6.70;99.90
6102;DHT22;3081;50.584;7.032;2023-11-22T00:59:23;6.80;99.90
6102;DHT22;3081;50.584;7.032;2023-11-22T01:01:50;6.80;99.90
6102;DHT22;3081;50.584;7.032;2023-11-22T01:04:17;6.80;99.90
6102;DHT22;3081;50.584;7.032;2023-11-22T01:06:44;6.80;99.90
6102;DHT22;3081;50.584;7.032;2023-11-22T01:09:11;6.80;99.90
6102;DHT22;3081;50.584;7.032;2023-11-22T01:11:40;6.80;99.90
6102;DHT22;3081;50.584;7.032;2023-11-22T01:14:07;6.80;99.90
6102;DHT22;3081;50.584;7.032;2023-11-22T01:16:34;6.80;99.90
6102;DHT22;3081;50.584;7.032;2023-11-22T01:19:02;6.80;99.90
6102;DHT22;3081;50.584;7.032;2023-11-22T01:21:29;6.80;99.90
6102;DHT22;3081;50.584;7.032;2023-11-22T01:23:56;6.80;99.90
6102;DHT22;3081;50.584;7.032;2023-11-22T01:26:23;6.80;99.90
6102;DHT22;3081;50.584;7.032;2023-11-22T01:28:52;6.80;99.90
6102;DHT22;3081;50.584;7.032;2023-11-22T01:31:19;6.80;99.90
6102;DHT22;3081;50.584;7.032;2023-11-22T01:33:47;6.80;99.90
6102;DHT22;3081;50.584;7.032;2023-11-22T01:36:14;6.80;99.90
6102;DHT22;3081;50.584;7.032;2023-11-22T01:38:41;6.80;99.90
6102;DHT22;3081;50.584;7.032;2023-11-22T01:41:10;6.80;99.90
6102;DHT22;3081;50.584;7.032;2023-11-22T01:43:38;6.80;99.90
6102;DHT22;3081;50.584;7.032;2023-11-22T01:46:09;6.70;99.90
6102;DHT22;3081;50.584;7.032;2023-11-22T01:48:37;6.70;99.90
6102;DHT22;3081;50.584;7.032;2023-11-22T01:51:04;6.70;99.90
6102;DHT22;3081;50.584;7.032;2023-11-22T01:53:34;6.70;99.90
6102;DHT22;3081;50.584;7.032;2023-11-22T01:56:02;6.70;99.90
6102;DHT22;3081;50.584;7.032;2023-11-22T01:58:29;6.70;99.90
6102;DHT22;3081;50.584;7.032;2023-11-22T02:00:57;6.70;99.90
6102;DHT22;3081;50.584;7.032;2023-11-22T02:03:26;6.70;99.90
6102;DHT22;3081;50.584;7.032;2023-11-22T02:05:53;6.60;99.90
6102;DHT22;3081;50.584;7.032;2023-11-22T02:08:20;6.60;99.90
6102;DHT22;3081;50.584;7.032;2023-11-22T02:10:57;6.60;99.90
6102;DHT22;3081;50.584;7.032;2023-11-22T02:13:24;6.60;99.90
6102;DHT22;3081;50.584;7.032;2023-11-22T02:15:52;6.60;99.90
6102;DHT22;3081;50.584;7.032;2023-11-22T02:18:21;6.60;99.90
6102;DHT22;3081;50.584;7.032;2023-11-22T02:20:50;6.50;99.90
6102;DHT22;3081;50.584;7.032;2023-11-22T02:23:18;6.50;99.90
6102;DHT22;3081;50.584;7.032;2023-11-22T02:25:45;6.50;99.90
6102;DHT22;3081;50.584;7.032;2023-11-22T02:28:12;6.50;99.90
6102;DHT22;3081;50.584;7.032;2023-11-22T02:30:40;6.50;99.90
6102;DHT22;3081;50.584;7.032;2023-11-22T02:33:07;6.50;99.90
6102;DHT22;3081;50.584;7.032;2023-11-22T02:35:34;6.50;99.90
6102;DHT22;3081;50.584;7.032;2023-11-22T02:38:01;6.50;99.90
6102;DHT22;3081;50.584;7.032;2023-11-22T02:40:29;6.50;99.90
6102;DHT22;3081;50.584;7.032;2023-11-22T02:42:56;6.50;99.90
6102;DHT22;3081;50.584;7.032;2023-11-22T02:45:26;6.50;99.90
6102;DHT22;3081;50.584;7.032;2023-11-22T02:47:53;6.50;99.90
6102;DHT22;3081;50.584;7.032;2023-11-22T02:50:21;6.50;99.90
6102;DHT22;3081;50.584;7.032;2023-11-22T02:52:47;6.50;99.90
6102;DHT22;3081;50.584;7.032;2023-11-22T02:55:14;6.50;99.90
6102;DHT22;3081;50.584;7.032;2023-11-22T02:57:43;6.50;99.90
6102;DHT22;3081;50.584;7.032;2023-11-22T03:00:11;6.50;99.90
6102;DHT22;3081;50.584;7.032;2023-11-22T03:02:40;6.40;99.90
6102;DHT22;3081;50.584;7.032;2023-11-22T03:05:08;6.50;99.90
6102;DHT22;3081;50.584;7.032;2023-11-22T03:07:35;6.50;99.90
6102;DHT22;3081;50.584;7.032;2023-11-22T03:10:02;6.50;99.90
6102;DHT22;3081;50.584;7.032;2023-11-22T03:12:29;6.50;99.90
6102;DHT22;3081;50.584;7.032;2023-11-22T03:14:57;6.50;99.90
6102;DHT22;3081;50.584;7.032;2023-11-22T03:17:27;6.50;99.90
6102;DHT22;3081;50.584;7.032;2023-11-22T03:19:55;6.50;99.90
6102;DHT22;3081;50.584;7.032;2023-11-22T03:22:22;6.50;99.90
6102;DHT22;3081;50.584;7.032;2023-11-22T03:24:49;6.50;99.90
6102;DHT22;3081;50.584;7.032;2023-11-22T03:27:16;6.50;99.90
6102;DHT22;3081;50.584;7.032;2023-11-22T03:29:43;6.50;99.90
6102;DHT22;3081;50.584;7.032;2023-11-22T03:32:13;6.40;99.90
6102;DHT22;3081;50.584;7.032;2023-11-22T03:34:40;6.40;99.90
6102;DHT22;3081;50.584;7.032;2023-11-22T03:37:07;6.40;99.90
6102;DHT22;3081;50.584;7.032;2023-11-22T03:39:34;6.40;99.90
6102;DHT22;3081;50.584;7.032;2023-11-22T03:42:01;6.40;99.90
6102;DHT22;3081;50.584;7.032;2023-11-22T03:44:27;6.40;99.90
6102;DHT22;3081;50.584;7.032;2023-11-22T03:46:55;6.40;99.90
6102;DHT22;3081;50.584;7.032;2023-11-22T03:49:23;6.40;99.90
6102;DHT22;3081;50.584;7.032;2023-11-22T03:51:50;6.40;99.90
6102;DHT22;3081;50.584;7.032;2023-11-22T03:54:17;6.40;99.90
6102;DHT22;3081;50.584;7.032;2023-11-22T03:56:44;6.30;99.90
6102;DHT22;3081;50.584;7.032;2023-11-22T03:59:12;6.30;99.90
6102;DHT22;3081;50.584;7.032;2023-11-22T04:01:39;6.30;99.90
6102;DHT22;3081;50.584;7.032;2023-11-22T04:04:06;6.30;99.90
6102;DHT22;3081;50.584;7.032;2023-11-22T04:06:35;6.40;99.90
6102;DHT22;3081;50.584;7.032;2023-11-22T04:09:02;6.30;99.90
6102;DHT22;3081;50.584;7.032;2023-11-22T04:11:29;6.30;99.90
6102;DHT22;3081;50.584;7.032;2023-11-22T04:13:56;6.30;99.90
6102;DHT22;3081;50.584;7.032;2023-11-22T04:16:23;6.30;99.90
6102;DHT22;3081;50.584;7.032;2023-11-22T04:18:51;6.30;99.90
6102;DHT22;3081;50.584;7.032;2023-11-22T04:21:17;6.30;99.90
6102;DHT22;3081;50.584;7.032;2023-11-22T04:23:46;6.30;99.90
6102;DHT22;3081;50.584;7.032;2023-11-22T04:26:13;6.30;99.90
6102;DHT22;3081;50.584;7.032;2023-11-22T04:28:41;6.30;99.90
6102;DHT22;3081;50.584;7.032;2023-11-22T04:31:08;6.30;99.90
6102;DHT22;3081;50.584;7.032;2023-11-22T04:33:35;6.30;99.90
6102;DHT22;3081;50.584;7.032;2023-11-22T04:36:03;6.30;99.90
6102;DHT22;3081;50.584;7.032;2023-11-22T04:38:30;6.30;99.90
6102;DHT22;3081;50.584;7.032;2023-11-22T04:40:58;6.40;99.90
6102;DHT22;3081;50.584;7.032;2023-11-22T04:43:25;6.30;99.90
6102;DHT22;3081;50.584;7.032;2023-11-22T04:45:52;6.30;99.90
6102;DHT22;3081;50.584;7.032;2023-11-22T04:48:20;6.20;99.90
6102;DHT22;3081;50.584;7.032;2023-11-22T04:50:47;6.20;99.90
6102;DHT22;3081;50.584;7.032;2023-11-22T04:53:14;6.20;99.90
6102;DHT22;3081;50.584;7.032;2023-11-22T04:55:42;6.20;99.90
6102;DHT22;3081;50.584;7.032;2023-11-22T04:58:10;6.20;99.90
6102;DHT22;3081;50.584;7.032;2023-11-22T05:00:37;6.20;99.90
6102;DHT22;3081;50.584;7.032;2023-11-22T05:03:04;6.10;99.90
6102;DHT22;3081;50.584;7.032;2023-11-22T05:05:31;6.10;99.90
6102;DHT22;3081;50.584;7.032;2023-11-22T05:07:58;6.10;99.90
6102;DHT22;3081;50.584;7.032;2023-11-22T05:10:25;6.10;99.90
6102;DHT22;3081;50.584;7.032;2023-11-22T05:12:52;6.10;99.90
6102;DHT22;3081;50.584;7.032;2023-11-22T05:15:22;6.00;99.90
6102;DHT22;3081;50.584;7.032;2023-11-22T05:17:49;6.00;99.90
6102;DHT22;3081;50.584;7.032;2023-11-22T05:20:16;6.00;99.90
6102;DHT22;3081;50.584;7.032;2023-11-22T05:22:43;6.00;99.90
6102;DHT22;3081;50.584;7.032;2023-11-22T05:25:09;6.00;99.90
6102;DHT22;3081;50.584;7.032;2023-11-22T05:27:36;5.90;99.90
6102;DHT22;3081;50.584;7.032;2023-11-22T05:30:04;5.90;99.90
6102;DHT22;3081;50.584;7.032;2023-11-22T05:32:32;5.90;99.90
6102;DHT22;3081;50.584;7.032;2023-11-22T05:34:59;5.90;99.90
6102;DHT22;3081;50.584;7.032;2023-11-22T05:37:26;5.90;99.90
6102;DHT22;3081;50.584;7.032;2023-11-22T05:39:54;5.80;99.90
6102;DHT22;3081;50.584;7.032;2023-11-22T05:42:21;5.80;99.90
6102;DHT22;3081;50.584;7.032;2023-11-22T05:44:50;5.80;99.90
6102;DHT22;3081;50.584;7.032;2023-11-22T05:47:18;5.70;99.90
6102;DHT22;3081;50.584;7.032;2023-11-22T05:49:46;5.70;99.90
6102;DHT22;3081;50.584;7.032;2023-11-22T05:52:13;5.70;99.90
6102;DHT22;3081;50.584;7.032;2023-11-22T05:54:40;5.70;99.90
6102;DHT22;3081;50.584;7.032;2023-11-22T05:57:07;5.70;99.90
6102;DHT22;3081;50.584;7.032;2023-11-22T05:59:35;5.70;99.90
6102;DHT22;3081;50.584;7.032;2023-11-22T06:02:02;5.70;99.90
6102;DHT22;3081;50.584;7.032;2023-11-22T06:04:29;5.70;99.90
6102;DHT22;3081;50.584;7.032;2023-11-22T06:06:58;5.70;99.90
6102;DHT22;3081;50.584;7.032;2023-11-22T06:09:25;5.70;99.90
6102;DHT22;3081;50.584;7.032;2023-11-22T06:11:52;5.80;99.90
6102;DHT22;3081;50.584;7.032;2023-11-22T06:14:20;5.70;99.90
6102;DHT22;3081;50.584;7.032;2023-11-22T06:16:47;5.80;99.90
6102;DHT22;3081;50.584;7.032;2023-11-22T06:19:14;5.80;99.90
6102;DHT22;3081;50.584;7.032;2023-11-22T06:21:41;5.80;99.90
6102;DHT22;3081;50.584;7.032;2023-11-22T06:24:09;5.80;99.90
6102;DHT22;3081;50.584;7.032;2023-11-22T06:26:41;5.70;99.90
6102;DHT22;3081;50.584;7.032;2023-11-22T06:29:08;5.70;99.90
6102;DHT22;3081;50.584;7.032;2023-11-22T06:31:35;5.60;99.90
6102;DHT22;3081;50.584;7.032;2023-11-22T06:34:02;5.50;99.90
6102;DHT22;3081;50.584;7.032;2023-11-22T06:36:29;5.40;99.90
6102;DHT22;3081;50.584;7.032;2023-11-22T06:38:56;5.30;99.90
6102;DHT22;3081;50.584;7.032;2023-11-22T06:41:24;5.20;99.90
6102;DHT22;3081;50.584;7.032;2023-11-22T06:43:51;5.20;99.90
6102;DHT22;3081;50.584;7.032;2023-11-22T06:46:19;5.10;99.90
6102;DHT22;3081;50.584;7.032;2023-11-22T06:48:47;5.10;99.90
6102;DHT22;3081;50.584;7.032;2023-11-22T06:51:15;5.00;99.90
6102;DHT22;3081;50.584;7.032;2023-11-22T06:53:42;4.90;99.90
6102;DHT22;3081;50.584;7.032;2023-11-22T06:56:09;4.90;99.90
6102;DHT22;3081;50.584;7.032;2023-11-22T06:58:38;4.90;99.90
6102;DHT22;3081;50.584;7.032;2023-11-22T07:01:06;4.80;99.90
6102;DHT22;3081;50.584;7.032;2023-11-22T07:03:36;4.70;99.90
6102;DHT22;3081;50.584;7.032;2023-11-22T07:06:03;4.60;99.90
6102;DHT22;3081;50.584;7.032;2023-11-22T07:08:30;4.40;99.90
6102;DHT22;3081;50.584;7.032;2023-11-22T07:10:57;4.30;99.90
6102;DHT22;3081;50.584;7.032;2023-11-22T07:13:24;4.20;99.90
6102;DHT22;3081;50.584;7.032;2023-11-22T07:15:53;4.20;99.90
6102;DHT22;3081;50.584;7.032;2023-11-22T07:18:20;4.20;99.90
6102;DHT22;3081;50.584;7.032;2023-11-22T07:20:50;4.30;99.90
6102;DHT22;3081;50.584;7.032;2023-11-22T07:23:19;4.50;99.90
6102;DHT22;3081;50.584;7.032;2023-11-22T07:25:48;4.90;99.90
6102;DHT22;3081;50.584;7.032;2023-11-22T07:28:15;5.40;99.90
6102;DHT22;3081;50.584;7.032;2023-11-22T07:30:42;5.80;99.90
6102;DHT22;3081;50.584;7.032;2023-11-22T07:33:10;6.30;99.90
6102;DHT22;3081;50.584;7.032;2023-11-22T07:35:37;6.80;99.90
6102;DHT22;3081;50.584;7.032;2023-11-22T07:38:04;7.20;99.90
6102;DHT22;3081;50.584;7.032;2023-11-22T07:40:33;7.70;99.90
6102;DHT22;3081;50.584;7.032;2023-11-22T07:43:01;8.20;99.90
6102;DHT22;3081;50.584;7.032;2023-11-22T07:45:30;8.70;99.90
6102;DHT22;3081;50.584;7.032;2023-11-22T07:47:57;9.00;99.90
6102;DHT22;3081;50.584;7.032;2023-11-22T07:50:26;9.20;99.90
6102;DHT22;3081;50.584;7.032;2023-11-22T07:52:53;9.50;99.90
6102;DHT22;3081;50.584;7.032;2023-11-22T07:55:20;9.70;99.90
6102;DHT22;3081;50.584;7.032;2023-11-22T07:57:48;9.80;99.90
6102;DHT22;3081;50.584;7.032;2023-11-22T08:00:17;10.10;99.90
6102;DHT22;3081;50.584;7.032;2023-11-22T08:02:45;10.40;99.90
6102;DHT22;3081;50.584;7.032;2023-11-22T08:05:12;10.60;99.90
6102;DHT22;3081;50.584;7.032;2023-11-22T08:07:42;11.00;99.90
6102;DHT22;3081;50.584;7.032;2023-11-22T08:10:11;11.30;99.90
6102;DHT22;3081;50.584;7.032;2023-11-22T08:12:45;11.60;99.90
6102;DHT22;3081;50.584;7.032;2023-11-22T08:15:13;11.90;99.90
6102;DHT22;3081;50.584;7.032;2023-11-22T08:17:41;12.30;99.90
6102;DHT22;3081;50.584;7.032;2023-11-22T08:20:09;12.40;99.90
6102;DHT22;3081;50.584;7.032;2023-11-22T08:22:38;12.50;99.90
6102;DHT22;3081;50.584;7.032;2023-11-22T08:25:08;12.70;99.90
6102;DHT22;3081;50.584;7.032;2023-11-22T08:27:38;12.80;99.90
6102;DHT22;3081;50.584;7.032;2023-11-22T08:30:07;13.00;99.90
6102;DHT22;3081;50.584;7.032;2023-11-22T08:32:39;13.10;99.90
6102;DHT22;3081;50.584;7.032;2023-11-22T08:35:08;13.30;99.90
6102;DHT22;3081;50.584;7.032;2023-11-22T08:37:35;13.60;99.90
6102;DHT22;3081;50.584;7.032;2023-11-22T08:40:07;13.60;99.90
6102;DHT22;3081;50.584;7.032;2023-11-22T08:42:35;13.30;99.90
6102;DHT22;3081;50.584;7.032;2023-11-22T08:45:02;13.40;99.90
6102;DHT22;3081;50.584;7.032;2023-11-22T08:47:29;13.60;99.90
6102;DHT22;3081;50.584;7.032;2023-11-22T08:49:57;13.90;99.90
6102;DHT22;3081;50.584;7.032;2023-11-22T08:52:24;14.20;99.90
6102;DHT22;3081;50.584;7.032;2023-11-22T08:54:51;14.20;99.90
6102;DHT22;3081;50.584;7.032;2023-11-22T08:57:19;14.00;99.90
6102;DHT22;3081;50.584;7.032;2023-11-22T08:59:46;14.20;99.90
6102;DHT22;3081;50.584;7.032;2023-11-22T09:02:13;14.50;99.90
6102;DHT22;3081;50.584;7.032;2023-11-22T09:04:40;14.80;99.90
6102;DHT22;3081;50.584;7.032;2023-11-22T09:07:08;15.00;99.90
6102;DHT22;3081;50.584;7.032;2023-11-22T09:09:36;15.10;99.90
6102;DHT22;3081;50.584;7.032;2023-11-22T09:12:03;15.30;99.90
6102;DHT22;3081;50.584;7.032;2023-11-22T09:14:39;15.30;99.90
6102;DHT22;3081;50.584;7.032;2023-11-22T09:17:07;15.10;99.90
6102;DHT22;3081;50.584;7.032;2023-11-22T09:19:35;15.20;99.90
6102;DHT22;3081;50.584;7.032;2023-11-22T09:22:03;15.10;99.90
6102;DHT22;3081;50.584;7.032;2023-11-22T09:24:32;15.10;99.90
6102;DHT22;3081;50.584;7.032;2023-11-22T09:26:59;15.30;99.90
6102;DHT22;3081;50.584;7.032;2023-11-22T09:29:30;15.20;99.90
6102;DHT22;3081;50.584;7.032;2023-11-22T09:31:59;15.20;99.90
6102;DHT22;3081;50.584;7.032;2023-11-22T09:34:27;15.40;99.90
6102;DHT22;3081;50.584;7.032;2023-11-22T09:36:55;15.60;99.90
6102;DHT22;3081;50.584;7.032;2023-11-22T09:39:22;15.80;99.90
6102;DHT22;3081;50.584;7.032;2023-11-22T09:41:51;16.00;99.90
6102;DHT22;3081;50.584;7.032;2023-11-22T09:44:18;15.90;99.90
6102;DHT22;3081;50.584;7.032;2023-11-22T09:46:48;16.10;99.90
6102;DHT22;3081;50.584;7.032;2023-11-22T09:49:24;16.30;99.90
6102;DHT22;3081;50.584;7.032;2023-11-22T09:51:54;16.60;99.90
6102;DHT22;3081;50.584;7.032;2023-11-22T09:54:24;16.70;99.90
6102;DHT22;3081;50.584;7.032;2023-11-22T09:56:57;16.50;99.70
6102;DHT22;3081;50.584;7.032;2023-11-22T09:59:27;16.10;99.90
6102;DHT22;3081;50.584;7.032;2023-11-22T10:01:55;15.90;99.90
6102;DHT22;3081;50.584;7.032;2023-11-22T10:04:26;16.00;99.80
6102;DHT22;3081;50.584;7.032;2023-11-22T10:06:56;15.70;98.90
6102;DHT22;3081;50.584;7.032;2023-11-22T10:09:24;15.50;99.00
6102;DHT22;3081;50.584;7.032;2023-11-22T10:11:53;15.20;98.90
6102;DHT22;3081;50.584;7.032;2023-11-22T10:14:23;15.00;98.30
6102;DHT22;3081;50.584;7.032;2023-11-22T10:16:58;15.00;97.30
6102;DHT22;3081;50.584;7.032;2023-11-22T10:19:27;15.10;97.90
6102;DHT22;3081;50.584;7.032;2023-11-22T10:22:05;15.60;96.90
6102;DHT22;3081;50.584;7.032;2023-11-22T10:24:32;15.50;95.50
6102;DHT22;3081;50.584;7.032;2023-11-22T10:27:00;15.80;96.00
6102;DHT22;3081;50.584;7.032;2023-11-22T10:29:27;16.20;94.30
6102;DHT22;3081;50.584;7.032;2023-11-22T10:31:55;16.60;94.60
6102;DHT22;3081;50.584;7.032;2023-11-22T10:34:23;17.00;94.70
6102;DHT22;3081;50.584;7.032;2023-11-22T10:36:51;17.50;92.40
6102;DHT22;3081;50.584;7.032;2023-11-22T10:39:19;17.70;90.60
6102;DHT22;3081;50.584;7.032;2023-11-22T10:41:47;17.60;89.30
6102;DHT22;3081;50.584;7.032;2023-11-22T10:44:20;17.50;88.00
6102;DHT22;3081;50.584;7.032;2023-11-22T10:46:47;17.60;88.00
6102;DHT22;3081;50.584;7.032;2023-11-22T10:49:16;17.50;83.70
6102;DHT22;3081;50.584;7.032;2023-11-22T10:51:47;17.50;84.30
6102;DHT22;3081;50.584;7.032;2023-11-22T10:54:19;17.60;83.20
6102;DHT22;3081;50.584;7.032;2023-11-22T10:56:53;17.60;80.60
6102;DHT22;3081;50.584;7.032;2023-11-22T10:59:22;17.20;80.80
6102;DHT22;3081;50.584;7.032;2023-11-22T11:01:53;17.00;83.70
6102;DHT22;3081;50.584;7.032;2023-11-22T11:04:27;17.00;82.60
6102;DHT22;3081;50.584;7.032;2023-11-22T11:06:57;17.00;81.20
6102;DHT22;3081;50.584;7.032;2023-11-22T11:09:27;17.00;81.20
6102;DHT22;3081;50.584;7.032;2023-11-22T11:11:58;17.00;79.60
6102;DHT22;3081;50.584;7.032;2023-11-22T11:14:25;17.00;80.00
6102;DHT22;3081;50.584;7.032;2023-11-22T11:16:53;17.00;80.30
6102;DHT22;3081;50.584;7.032;2023-11-22T11:19:24;16.80;79.30
6102;DHT22;3081;50.584;7.032;2023-11-22T11:21:51;16.50;79.40
6102;DHT22;3081;50.584;7.032;2023-11-22T11:24:18;16.20;79.30
6102;DHT22;3081;50.584;7.032;2023-11-22T11:26:49;16.10;79.80
6102;DHT22;3081;50.584;7.032;2023-11-22T11:29:30;16.00;80.80
6102;DHT22;3081;50.584;7.032;2023-11-22T11:31:57;15.80;80.90
6102;DHT22;3081;50.584;7.032;2023-11-22T11:34:24;15.70;82.00
6102;DHT22;3081;50.584;7.032;2023-11-22T11:36:53;16.00;82.40
6102;DHT22;3081;50.584;7.032;2023-11-22T11:39:25;16.00;82.00
6102;DHT22;3081;50.584;7.032;2023-11-22T11:42:08;15.70;80.20
6102;DHT22;3081;50.584;7.032;2023-11-22T11:44:36;15.30;81.70
6102;DHT22;3081;50.584;7.032;2023-11-22T11:47:09;14.90;79.70
6102;DHT22;3081;50.584;7.032;2023-11-22T11:49:37;14.40;81.30
6102;DHT22;3081;50.584;7.032;2023-11-22T11:52:04;14.00;80.50
6102;DHT22;3081;50.584;7.032;2023-11-22T11:54:31;13.60;80.50
6102;DHT22;3081;50.584;7.032;2023-11-22T11:56:58;13.20;81.60
6102;DHT22;3081;50.584;7.032;2023-11-22T11:59:27;12.90;82.70
6102;DHT22;3081;50.584;7.032;2023-11-22T12:01:55;12.60;82.80
6102;DHT22;3081;50.584;7.032;2023-11-22T12:04:23;12.50;83.30
6102;DHT22;3081;50.584;7.032;2023-11-22T12:06:50;12.70;84.30
6102;DHT22;3081;50.584;7.032;2023-11-22T12:09:22;13.10;83.80
6102;DHT22;3081;50.584;7.032;2023-11-22T12:11:51;13.50;82.80
6102;DHT22;3081;50.584;7.032;2023-11-22T12:14:19;14.00;83.90
6102;DHT22;3081;50.584;7.032;2023-11-22T12:16:49;14.70;83.70
6102;DHT22;3081;50.584;7.032;2023-11-22T12:19:23;15.40;80.90
6102;DHT22;3081;50.584;7.032;2023-11-22T12:21:52;15.70;80.80
6102;DHT22;3081;50.584;7.032;2023-11-22T12:24:19;15.90;80.20
6102;DHT22;3081;50.584;7.032;2023-11-22T12:26:48;16.00;80.70
6102;DHT22;3081;50.584;7.032;2023-11-22T12:29:17;16.10;79.80
6102;DHT22;3081;50.584;7.032;2023-11-22T12:31:45;16.30;78.70
6102;DHT22;3081;50.584;7.032;2023-11-22T12:34:15;16.40;76.80
6102;DHT22;3081;50.584;7.032;2023-11-22T12:36:42;16.40;75.60
6102;DHT22;3081;50.584;7.032;2023-11-22T12:39:10;16.40;76.20
6102;DHT22;3081;50.584;7.032;2023-11-22T12:41:46;16.10;75.70
6102;DHT22;3081;50.584;7.032;2023-11-22T12:44:14;15.70;77.40
6102;DHT22;3081;50.584;7.032;2023-11-22T12:46:45;15.20;77.90
6102;DHT22;3081;50.584;7.032;2023-11-22T12:49:16;14.80;78.80
6102;DHT22;3081;50.584;7.032;2023-11-22T12:51:51;14.20;78.40
6102;DHT22;3081;50.584;7.032;2023-11-22T12:54:18;13.60;80.00
6102;DHT22;3081;50.584;7.032;2023-11-22T12:56:48;13.20;82.30
6102;DHT22;3081;50.584;7.032;2023-11-22T12:59:16;13.30;82.60
6102;DHT22;3081;50.584;7.032;2023-11-22T13:01:43;13.80;83.50
6102;DHT22;3081;50.584;7.032;2023-11-22T13:04:10;14.50;82.10
6102;DHT22;3081;50.584;7.032;2023-11-22T13:06:41;15.10;81.50
6102;DHT22;3081;50.584;7.032;2023-11-22T13:09:08;15.70;79.40
6102;DHT22;3081;50.584;7.032;2023-11-22T13:11:40;15.90;77.70
6102;DHT22;3081;50.584;7.032;2023-11-22T13:14:08;16.00;77.60
6102;DHT22;3081;50.584;7.032;2023-11-22T13:16:35;16.10;76.60
6102;DHT22;3081;50.584;7.032;2023-11-22T13:19:04;16.20;77.40
6102;DHT22;3081;50.584;7.032;2023-11-22T13:21:31;16.50;76.80
6102;DHT22;3081;50.584;7.032;2023-11-22T13:24:00;16.70;76.20
6102;DHT22;3081;50.584;7.032;2023-11-22T13:26:27;16.30;75.00
6102;DHT22;3081;50.584;7.032;2023-11-22T13:28:53;15.70;74.30
6102;DHT22;3081;50.584;7.032;2023-11-22T13:31:21;14.70;74.60
6102;DHT22;3081;50.584;7.032;2023-11-22T13:33:50;13.70;75.60
6102;DHT22;3081;50.584;7.032;2023-11-22T13:36:17;13.00;79.40
6102;DHT22;3081;50.584;7.032;2023-11-22T13:38:44;12.20;80.60
6102;DHT22;3081;50.584;7.032;2023-11-22T13:41:12;11.40;82.30
6102;DHT22;3081;50.584;7.032;2023-11-22T13:43:39;11.00;84.40
6102;DHT22;3081;50.584;7.032;2023-11-22T13:46:06;10.70;86.20
6102;DHT22;3081;50.584;7.032;2023-11-22T13:48:35;10.40;88.80
6102;DHT22;3081;50.584;7.032;2023-11-22T13:51:02;9.90;90.00
6102;DHT22;3081;50.584;7.032;2023-11-22T13:53:29;9.60;90.50
6102;DHT22;3081;50.584;7.032;2023-11-22T13:56:00;9.40;91.40
6102;DHT22;3081;50.584;7.032;2023-11-22T13:58:35;9.20;91.50
6102;DHT22;3081;50.584;7.032;2023-11-22T14:01:01;9.00;91.60
6102;DHT22;3081;50.584;7.032;2023-11-22T14:03:31;8.90;91.70
6102;DHT22;3081;50.584;7.032;2023-11-22T14:05:58;8.90;91.90
6102;DHT22;3081;50.584;7.032;2023-11-22T14:08:26;9.00;91.80
6102;DHT22;3081;50.584;7.032;2023-11-22T14:10:52;9.10;92.00
6102;DHT22;3081;50.584;7.032;2023-11-22T14:13:19;9.20;92.10
6102;DHT22;3081;50.584;7.032;2023-11-22T14:15:48;9.30;92.10
6102;DHT22;3081;50.584;7.032;2023-11-22T14:18:14;9.40;91.80
6102;DHT22;3081;50.584;7.032;2023-11-22T14:20:42;9.40;91.80
6102;DHT22;3081;50.584;7.032;2023-11-22T14:23:09;9.40;91.90
6102;DHT22;3081;50.584;7.032;2023-11-22T14:25:36;9.40;92.60
6102;DHT22;3081;50.584;7.032;2023-11-22T14:28:03;9.60;93.50
6102;DHT22;3081;50.584;7.032;2023-11-22T14:30:30;9.60;94.40
6102;DHT22;3081;50.584;7.032;2023-11-22T14:33:02;9.70;95.00
6102;DHT22;3081;50.584;7.032;2023-11-22T14:35:32;9.60;95.20
6102;DHT22;3081;50.584;7.032;2023-11-22T14:38:00;9.40;95.20
6102;DHT22;3081;50.584;7.032;2023-11-22T14:40:28;9.30;95.20
6102;DHT22;3081;50.584;7.032;2023-11-22T14:42:56;9.10;95.70
6102;DHT22;3081;50.584;7.032;2023-11-22T14:45:23;8.80;95.80
6102;DHT22;3081;50.584;7.032;2023-11-22T14:47:52;8.70;96.50
6102;DHT22;3081;50.584;7.032;2023-11-22T14:50:20;8.60;96.90
6102;DHT22;3081;50.584;7.032;2023-11-22T14:52:51;8.60;97.40
6102;DHT22;3081;50.584;7.032;2023-11-22T14:55:18;8.50;97.60
6102;DHT22;3081;50.584;7.032;2023-11-22T14:57:46;8.40;98.10
6102;DHT22;3081;50.584;7.032;2023-11-22T15:00:14;8.30;99.00
6102;DHT22;3081;50.584;7.032;2023-11-22T15:02:42;8.20;99.60
6102;DHT22;3081;50.584;7.032;2023-11-22T15:05:12;8.00;99.60
6102;DHT22;3081;50.584;7.032;2023-11-22T15:07:40;8.00;99.90
6102;DHT22;3081;50.584;7.032;2023-11-22T15:10:08;7.90;99.90
6102;DHT22;3081;50.584;7.032;2023-11-22T15:12:35;7.70;99.90
6102;DHT22;3081;50.584;7.032;2023-11-22T15:15:03;7.70;99.90
6102;DHT22;3081;50.584;7.032;2023-11-22T15:17:30;7.70;99.90
6102;DHT22;3081;50.584;7.032;2023-11-22T15:19:57;7.60;99.90
6102;DHT22;3081;50.584;7.032;2023-11-22T15:22:24;7.60;99.90
6102;DHT22;3081;50.584;7.032;2023-11-22T15:24:53;7.50;99.90
6102;DHT22;3081;50.584;7.032;2023-11-22T15:27:19;7.40;99.90
6102;DHT22;3081;50.584;7.032;2023-11-22T15:29:46;7.30;99.90
6102;DHT22;3081;50.584;7.032;2023-11-22T15:32:13;7.20;99.90
6102;DHT22;3081;50.584;7.032;2023-11-22T15:34:40;7.00;99.90
6102;DHT22;3081;50.584;7.032;2023-11-22T15:37:07;6.90;99.90
6102;DHT22;3081;50.584;7.032;2023-11-22T15:39:36;6.90;99.90
6102;DHT22;3081;50.584;7.032;2023-11-22T15:42:05;6.80;99.90
6102;DHT22;3081;50.584;7.032;2023-11-22T15:44:32;6.80;99.90
6102;DHT22;3081;50.584;7.032;2023-11-22T15:46:59;6.70;99.90
6102;DHT22;3081;50.584;7.032;2023-11-22T15:49:30;6.70;99.90
6102;DHT22;3081;50.584;7.032;2023-11-22T15:51:57;6.70;99.90
6102;DHT22;3081;50.584;7.032;2023-11-22T15:54:24;6.70;99.90
6102;DHT22;3081;50.584;7.032;2023-11-22T15:56:50;6.60;99.90
6102;DHT22;3081;50.584;7.032;2023-11-22T15:59:19;6.60;99.90
6102;DHT22;3081;50.584;7.032;2023-11-22T16:01:46;6.50;99.90
6102;DHT22;3081;50.584;7.032;2023-11-22T16:04:12;6.30;99.90
6102;DHT22;3081;50.584;7.032;2023-11-22T16:06:41;6.30;99.90
6102;DHT22;3081;50.584;7.032;2023-11-22T16:09:08;6.30;99.90
6102;DHT22;3081;50.584;7.032;2023-11-22T16:11:38;6.30;99.90
6102;DHT22;3081;50.584;7.032;2023-11-22T16:14:05;6.30;99.90
6102;DHT22;3081;50.584;7.032;2023-11-22T16:16:33;6.30;99.90